Time;durP1;ratioP1;P1;durP2;ratioP2;P2;SDS_P1;SDS_P2;PMS_P1;PMS_P2;Temp;Humidity;BMP_temperature;BMP_pressure;BME280_temperature;BME280_humidity;BME280_pressure;Samples;Min_cycle;Max_cycle;Signal;HPM_P1;HPM_P2
2022/08/04 06:00:26;;;;;;;6.43;3.20;;;;;;;;;;10539818;27;20403;-80
2022/08/04 06:05:27;;;;;;;6.80;3.50;;;;;;;;;;10541073;28;20032;-80
2022/08/04 06:10:31;;;;;;;4.60;2.55;;;;;;;;;;10520571;28;20036;-81
2022/08/04 06:15:38;;;;;;;6.68;3.22;;;;;;;;;;10537116;28;20055;-80
2022/08/04 06:20:45;;;;;;;6.55;4.15;;;;;;;;;;10537412;28;20032;-81
2022/08/04 06:25:49;;;;;;;10.88;4.10;;;;;;;;;;10537434;28;20035;-79
2022/08/04 06:31:01;;;;;;;7.60;4.60;;;;;;;;;;10538401;28;20033;-79
2022/08/04 06:36:15;;;;;;;8.43;3.20;;;;;;;;;;10541543;28;20043;-79
2022/08/04 06:41:19;;;;;;;9.65;3.40;;;;;;;;;;10540167;28;20028;-79
2022/08/04 06:46:20;;;;;;;7.60;3.80;;;;;;;;;;10538350;28;20615;-79
2022/08/04 06:51:22;;;;;;;6.63;2.95;;;;;;;;;;10539276;28;20076;-79
2022/08/04 06:56:24;;;;;;;6.57;3.20;;;;;;;;;;10548565;28;20057;-81
2022/08/04 07:01:26;;;;;;;4.82;2.58;;;;;;;;;;10564415;28;20062;-80
2022/08/04 07:06:27;;;;;;;6.00;3.00;;;;;;;;;;10574549;28;20031;-80
2022/08/04 07:11:28;;;;;;;6.88;3.25;;;;;;;;;;10564823;28;20028;-79
2022/08/04 07:16:30;;;;;;;9.95;3.10;;;;;;;;;;10544256;28;20028;-78
2022/08/04 07:21:34;;;;;;;6.60;4.57;;;;;;;;;;10562044;28;20096;-80
2022/08/04 07:26:35;;;;;;;5.35;3.33;;;;;;;;;;10568598;28;20539;-79
2022/08/04 07:31:37;;;;;;;10.52;4.35;;;;;;;;;;10562296;28;20117;-80
2022/08/04 07:36:38;;;;;;;6.20;3.60;;;;;;;;;;10541244;28;20111;-79
2022/08/04 07:41:41;;;;;;;5.57;2.97;;;;;;;;;;10532827;28;20038;-79
2022/08/04 07:46:42;;;;;;;6.07;3.08;;;;;;;;;;10553844;28;20035;-79
2022/08/04 07:51:43;;;;;;;7.07;3.00;;;;;;;;;;10533587;28;20060;-79
2022/08/04 07:56:47;;;;;;;6.60;4.25;;;;;;;;;;10530719;28;20458;-79
2022/08/04 08:01:49;;;;;;;7.85;3.15;;;;;;;;;;10532727;28;20474;-80
2022/08/04 08:06:51;;;;;;;7.88;3.40;;;;;;;;;;10550269;28;20447;-80
2022/08/04 08:11:53;;;;;;;6.65;3.45;;;;;;;;;;10549657;28;20077;-80
2022/08/04 08:16:54;;;;;;;6.43;5.10;;;;;;;;;;10560162;28;20024;-78
2022/08/04 08:21:58;;;;;;;4.45;2.80;;;;;;;;;;10556905;28;20031;-78
2022/08/04 08:27:03;;;;;;;4.38;3.13;;;;;;;;;;10538759;28;20028;-78
2022/08/04 08:32:07;;;;;;;6.45;3.28;;;;;;;;;;10540296;28;20032;-78
2022/08/04 08:37:27;;;;;;;6.07;3.03;;;;;;;;;;10537893;28;20043;-78
2022/08/04 08:42:34;;;;;;;6.35;3.53;;;;;;;;;;10552281;28;20410;-79
2022/08/04 08:47:42;;;;;;;3.90;3.25;;;;;;;;;;10528419;28;20025;-79
2022/08/04 08:52:49;;;;;;;4.63;3.80;;;;;;;;;;10527107;28;20051;-79
2022/08/04 08:57:59;;;;;;;4.75;3.17;;;;;;;;;;10544189;28;20028;-78
2022/08/04 09:03:10;;;;;;;4.43;3.28;;;;;;;;;;10526928;28;20470;-79
2022/08/04 09:08:47;;;;;;;5.40;3.40;;;;;;;;;;10526927;28;20056;-78
2022/08/04 09:13:51;;;;;;;6.30;2.80;;;;;;;;;;10421014;28;20141;-80
2022/08/04 09:19:05;;;;;;;3.55;3.20;;;;;;;;;;10525707;28;20036;-80
2022/08/04 09:24:18;;;;;;;4.07;2.88;;;;;;;;;;10526009;28;20020;-79
2022/08/04 09:29:38;;;;;;;4.40;3.38;;;;;;;;;;10546330;28;20102;-80
2022/08/04 09:34:59;;;;;;;6.53;2.95;;;;;;;;;;10528237;28;20057;-79
2022/08/04 09:40:07;;;;;;;3.78;2.38;;;;;;;;;;10527753;28;20081;-78
2022/08/04 09:45:08;;;;;;;5.90;3.40;;;;;;;;;;10529136;28;20024;-79
2022/08/04 09:50:28;;;;;;;4.57;3.38;;;;;;;;;;10543629;28;20032;-79
2022/08/04 09:55:42;;;;;;;3.85;2.97;;;;;;;;;;10543742;28;20024;-79
2022/08/04 10:00:45;;;;;;;3.50;2.17;;;;;;;;;;10543669;28;20016;-79
2022/08/04 10:06:04;;;;;;;6.72;3.03;;;;;;;;;;10545452;28;20021;-80
2022/08/04 10:11:19;;;;;;;5.82;3.60;;;;;;;;;;10545095;28;20016;-80
2022/08/04 10:16:29;;;;;;;5.60;3.00;;;;;;;;;;10544882;28;20142;-80
2022/08/04 10:21:30;;;;;;;7.28;3.55;;;;;;;;;;10544472;28;20042;-79
2022/08/04 10:26:42;;;;;;;6.28;3.65;;;;;;;;;;10525749;28;20050;-80
2022/08/04 10:31:53;;;;;;;10.23;5.85;;;;;;;;;;10527339;28;20032;-79
2022/08/04 10:37:05;;;;;;;6.20;3.92;;;;;;;;;;10526701;28;20470;-80
2022/08/04 10:42:16;;;;;;;7.15;4.32;;;;;;;;;;10525357;28;20024;-80
2022/08/04 10:47:19;;;;;;;7.38;3.42;;;;;;;;;;10531792;28;20482;-79
2022/08/04 10:52:20;;;;;;;6.50;3.60;;;;;;;;;;10549176;28;20534;-79
2022/08/04 10:57:25;;;;;;;6.38;2.88;;;;;;;;;;10529972;28;20123;-81
2022/08/04 11:02:32;;;;;;;8.05;4.35;;;;;;;;;;10530180;28;20024;-81
2022/08/04 11:07:34;;;;;;;6.13;4.00;;;;;;;;;;10533702;28;20119;-80
2022/08/04 11:12:37;;;;;;;7.22;3.95;;;;;;;;;;10534961;28;20034;-80
2022/08/04 11:17:47;;;;;;;10.40;4.35;;;;;;;;;;10533247;28;20024;-81
2022/08/04 11:23:05;;;;;;;4.75;2.70;;;;;;;;;;10531823;28;20020;-80
2022/08/04 11:28:17;;;;;;;4.83;2.60;;;;;;;;;;10548432;28;20386;-80
2022/08/04 11:33:27;;;;;;;5.95;3.17;;;;;;;;;;10529931;28;20066;-80
2022/08/04 11:38:33;;;;;;;6.68;3.35;;;;;;;;;;10547504;28;20074;-79
2022/08/04 11:43:43;;;;;;;7.35;3.20;;;;;;;;;;10548304;28;20025;-79
2022/08/04 11:49:02;;;;;;;7.20;5.45;;;;;;;;;;10532429;28;20059;-79
2022/08/04 11:54:04;;;;;;;7.90;3.17;;;;;;;;;;10547344;28;20393;-79
2022/08/04 11:59:07;;;;;;;4.60;2.90;;;;;;;;;;10533584;28;20099;-81
2022/08/04 12:04:27;;;;;;;5.97;3.00;;;;;;;;;;10536087;28;20035;-80
2022/08/04 12:09:31;;;;;;;7.57;2.65;;;;;;;;;;10534811;28;20024;-81
2022/08/04 12:14:51;;;;;;;8.02;3.38;;;;;;;;;;10536228;28;20188;-80
2022/08/04 12:19:56;;;;;;;6.18;2.58;;;;;;;;;;10531668;28;20504;-81
2022/08/04 12:25:06;;;;;;;8.75;2.90;;;;;;;;;;10528970;28;20020;-81
2022/08/04 12:30:08;;;;;;;10.57;3.13;;;;;;;;;;10530040;28;20024;-81
2022/08/04 12:35:25;;;;;;;9.82;2.90;;;;;;;;;;10528107;28;20032;-80
2022/08/04 12:40:27;;;;;;;6.93;2.80;;;;;;;;;;10546989;28;20020;-80
2022/08/04 12:45:29;;;;;;;4.43;2.90;;;;;;;;;;10529047;28;20016;-80
2022/08/04 12:50:31;;;;;;;7.40;2.60;;;;;;;;;;10528722;28;20024;-81
2022/08/04 12:55:33;;;;;;;6.50;2.80;;;;;;;;;;10527620;28;20122;-78
2022/08/04 13:00:35;;;;;;;5.50;2.92;;;;;;;;;;10546286;28;20084;-79
2022/08/04 13:05:39;;;;;;;7.95;2.97;;;;;;;;;;10527056;28;20434;-79
2022/08/04 13:10:42;;;;;;;7.15;2.80;;;;;;;;;;10526415;28;20074;-79
2022/08/04 13:15:43;;;;;;;7.38;3.08;;;;;;;;;;10525633;28;20020;-79
2022/08/04 13:20:44;;;;;;;11.85;3.00;;;;;;;;;;10525449;28;20043;-79
2022/08/04 13:25:50;;;;;;;7.05;2.88;;;;;;;;;;10525579;28;20028;-79
2022/08/04 13:30:56;;;;;;;5.40;2.55;;;;;;;;;;10532073;28;20083;-78
2022/08/04 13:35:58;;;;;;;7.13;2.90;;;;;;;;;;10561013;28;20040;-82
2022/08/04 13:41:01;;;;;;;8.77;2.75;;;;;;;;;;10542195;28;20119;-80
2022/08/04 13:46:03;;;;;;;6.55;3.28;;;;;;;;;;10554134;28;20051;-81
2022/08/04 13:51:05;;;;;;;6.00;2.90;;;;;;;;;;10550099;28;20119;-80
2022/08/04 13:56:09;;;;;;;6.28;3.83;;;;;;;;;;10556005;28;20031;-80
2022/08/04 14:01:21;;;;;;;9.52;3.50;;;;;;;;;;10555848;28;20024;-79
2022/08/04 14:06:22;;;;;;;4.65;2.63;;;;;;;;;;10554965;28;20096;-81
2022/08/04 14:11:43;;;;;;;5.30;3.08;;;;;;;;;;10550831;28;20028;-79
2022/08/04 14:16:57;;;;;;;9.63;6.88;;;;;;;;;;10556911;28;20048;-80
2022/08/04 14:21:58;;;;;;;5.50;3.00;;;;;;;;;;10562173;28;20024;-80
2022/08/04 14:26:59;;;;;;;8.35;2.90;;;;;;;;;;10559354;28;20405;-78
2022/08/04 14:32:02;;;;;;;6.43;4.18;;;;;;;;;;10560288;28;20025;-81
2022/08/04 14:37:07;;;;;;;8.38;2.80;;;;;;;;;;10576511;28;20020;-81
2022/08/04 14:42:08;;;;;;;6.15;3.50;;;;;;;;;;10581288;28;20024;-80
2022/08/04 14:47:09;;;;;;;4.03;3.28;;;;;;;;;;10581072;28;20024;-80
2022/08/04 14:52:10;;;;;;;6.00;3.50;;;;;;;;;;10562822;28;20034;-80
2022/08/04 14:57:15;;;;;;;8.65;2.75;;;;;;;;;;10564626;28;20039;-80
2022/08/04 15:02:16;;;;;;;5.60;2.65;;;;;;;;;;10565216;28;20017;-80
2022/08/04 15:07:17;;;;;;;4.70;3.05;;;;;;;;;;10581653;28;20028;-80
2022/08/04 15:12:18;;;;;;;6.20;4.78;;;;;;;;;;10566850;28;20039;-81
2022/08/04 15:17:20;;;;;;;4.78;3.20;;;;;;;;;;10568245;28;20024;-80
2022/08/04 15:22:21;;;;;;;5.28;2.85;;;;;;;;;;10567514;28;20058;-79
2022/08/04 15:27:24;;;;;;;4.20;2.30;;;;;;;;;;10550960;28;20024;-79
2022/08/04 15:32:25;;;;;;;5.40;2.30;;;;;;;;;;10554785;28;20023;-80
2022/08/04 15:37:28;;;;;;;7.28;3.40;;;;;;;;;;10554371;28;20057;-80
2022/08/04 15:42:29;;;;;;;6.82;4.97;;;;;;;;;;10557614;28;20475;-80
2022/08/04 15:47:30;;;;;;;11.77;10.15;;;;;;;;;;10580688;28;20032;-80
2022/08/04 15:52:51;;;;;;;3.97;3.33;;;;;;;;;;10565594;28;20035;-80
2022/08/04 15:58:03;;;;;;;6.43;2.90;;;;;;;;;;10563482;28;20032;-80
2022/08/04 16:03:24;;;;;;;4.28;2.50;;;;;;;;;;10578507;28;20023;-80
2022/08/04 16:08:26;;;;;;;3.00;2.20;;;;;;;;;;10585482;28;20027;-80
2022/08/04 16:13:27;;;;;;;4.43;2.30;;;;;;;;;;10567188;28;20035;-80
2022/08/04 16:18:28;;;;;;;4.20;2.40;;;;;;;;;;10565348;28;20032;-80
2022/08/04 16:23:35;;;;;;;4.25;2.28;;;;;;;;;;10578914;28;20035;-81
2022/08/04 16:28:40;;;;;;;6.22;2.80;;;;;;;;;;10572200;28;20020;-80
2022/08/04 16:33:46;;;;;;;3.65;2.35;;;;;;;;;;10575162;28;20087;-80
2022/08/04 16:39:03;;;;;;;3.67;2.60;;;;;;;;;;10593270;28;20024;-80
2022/08/04 16:44:23;;;;;;;5.00;2.60;;;;;;;;;;10570106;28;20024;-81
